Time;durP1;ratioP1;P1;durP2;ratioP2;P2;SDS_P1;SDS_P2;PMS_P1;PMS_P2;Temp;Humidity;BMP_temperature;BMP_pressure;BME280_temperature;BME280_humidity;BME280_pressure;Samples;Min_cycle;Max_cycle;Signal;HPM_P1;HPM_P2
2022/10/06 00:00:52;;;;;;;26.20;2.92;;;12.60;99.90;;;;;;5055857;28;20025;-67
2022/10/06 00:03:21;;;;;;;20.73;1.80;;;12.60;99.90;;;;;;5056434;28;20035;-67
2022/10/06 00:05:47;;;;;;;9.77;2.10;;;12.50;99.90;;;;;;5056211;28;20100;-67
2022/10/06 00:08:13;;;;;;;19.40;2.80;;;12.50;99.90;;;;;;5055751;28;20052;-67
2022/10/06 00:10:39;;;;;;;25.40;1.90;;;12.40;99.90;;;;;;5056086;28;20029;-67
2022/10/06 00:13:05;;;;;;;23.98;3.97;;;12.40;99.90;;;;;;5056089;28;20037;-67
2022/10/06 00:15:32;;;;;;;18.63;2.47;;;12.50;99.90;;;;;;5056311;28;20025;-67
2022/10/06 00:17:58;;;;;;;17.25;2.75;;;12.40;99.90;;;;;;5055560;28;20429;-67
2022/10/06 00:20:25;;;;;;;24.98;2.83;;;12.40;99.90;;;;;;5056266;28;20060;-67
2022/10/06 00:22:51;;;;;;;19.02;3.80;;;12.40;99.90;;;;;;5055770;28;20040;-67
2022/10/06 00:25:19;;;;;;;28.52;3.05;;;12.40;99.90;;;;;;5056113;28;20021;-66
2022/10/06 00:27:47;;;;;;;27.95;3.28;;;12.40;99.90;;;;;;5055305;28;20036;-66
2022/10/06 00:30:18;;;;;;;29.10;3.47;;;12.40;99.90;;;;;;5055801;28;20484;-66
2022/10/06 00:33:00;;;;;;;29.02;3.38;;;12.40;99.90;;;;;;5055760;28;20037;-66
2022/10/06 00:35:28;;;;;;;31.17;3.58;;;12.40;99.90;;;;;;5055969;28;20032;-66
2022/10/06 00:37:54;;;;;;;30.27;3.65;;;12.40;99.90;;;;;;5055287;28;20028;-66
2022/10/06 00:40:21;;;;;;;16.50;2.20;;;12.40;99.90;;;;;;5055873;28;20036;-66
2022/10/06 00:42:54;;;;;;;18.77;3.22;;;12.50;99.90;;;;;;5055378;28;20433;-66
2022/10/06 00:45:35;;;;;;;27.88;3.67;;;12.60;99.90;;;;;;5055810;28;20389;-66
2022/10/06 00:48:14;;;;;;;33.55;4.72;;;12.70;99.90;;;;;;5051115;28;20028;-65
2022/10/06 00:50:41;;;;;;;29.40;4.43;;;12.80;99.90;;;;;;5053025;28;20354;-65
2022/10/06 00:53:07;;;;;;;23.58;2.63;;;12.80;99.90;;;;;;5035977;28;20032;-65
2022/10/06 00:55:33;;;;;;;29.17;4.22;;;12.70;99.90;;;;;;5035678;28;20033;-65
2022/10/06 00:57:59;;;;;;;28.13;4.10;;;12.60;99.90;;;;;;5053093;28;20032;-65
2022/10/06 01:00:26;;;;;;;26.20;3.13;;;12.40;99.90;;;;;;5050433;28;20029;-65
2022/10/06 01:03:10;;;;;;;22.13;3.47;;;12.20;99.90;;;;;;5035299;28;20079;-65
2022/10/06 01:05:45;;;;;;;29.85;4.30;;;12.10;99.90;;;;;;5035433;28;20393;-65
2022/10/06 01:08:11;;;;;;;28.23;4.25;;;11.90;99.90;;;;;;5035228;28;20049;-65
2022/10/06 01:10:36;;;;;;;36.90;3.22;;;11.80;99.90;;;;;;5035238;28;20446;-66
2022/10/06 01:13:02;;;;;;;42.00;5.05;;;11.80;99.90;;;;;;5035336;28;20083;-65
2022/10/06 01:15:28;;;;;;;44.85;4.70;;;11.70;99.90;;;;;;5034486;28;20117;-66
2022/10/06 01:17:56;;;;;;;38.58;4.13;;;11.60;99.90;;;;;;5049327;28;20039;-66
2022/10/06 01:20:22;;;;;;;53.40;5.80;;;11.60;99.90;;;;;;5054711;28;20032;-66
2022/10/06 01:23:09;;;;;;;52.22;5.40;;;11.60;99.90;;;;;;5054685;28;20538;-66
2022/10/06 01:25:35;;;;;;;39.25;5.10;;;11.60;99.90;;;;;;5054952;28;20036;-66
2022/10/06 01:28:03;;;;;;;43.20;4.55;;;11.60;99.90;;;;;;5054444;28;20082;-66
2022/10/06 01:30:49;;;;;;;28.33;4.03;;;11.60;99.90;;;;;;5055169;28;20021;-66
2022/10/06 01:33:15;;;;;;;51.85;6.03;;;11.50;99.90;;;;;;5052695;28;20052;-66
2022/10/06 01:35:44;;;;;;;43.30;4.53;;;11.50;99.90;;;;;;5054751;28;20388;-66
2022/10/06 01:38:09;;;;;;;58.55;5.75;;;11.60;99.90;;;;;;5049557;28;20108;-66
2022/10/06 01:40:35;;;;;;;44.25;4.50;;;11.60;99.90;;;;;;5054365;28;20071;-66
2022/10/06 01:43:00;;;;;;;36.00;5.00;;;11.60;99.90;;;;;;5054058;28;20466;-66
2022/10/06 01:45:26;;;;;;;48.47;5.00;;;11.60;99.90;;;;;;5054562;28;20078;-66
2022/10/06 01:47:51;;;;;;;34.45;5.65;;;11.60;99.90;;;;;;5054223;28;20025;-66
2022/10/06 01:50:17;;;;;;;44.72;5.10;;;11.70;99.90;;;;;;5054507;28;20025;-66
2022/10/06 01:52:42;;;;;;;54.88;6.32;;;11.70;99.90;;;;;;5054135;28;20033;-66
2022/10/06 01:55:08;;;;;;;33.08;4.90;;;11.90;99.90;;;;;;5054210;28;20029;-66
2022/10/06 01:57:38;;;;;;;60.05;6.03;;;12.00;99.90;;;;;;5053643;28;20029;-66
2022/10/06 02:00:05;;;;;;;35.60;5.28;;;12.00;99.90;;;;;;5053967;28;20530;-66
2022/10/06 02:02:31;;;;;;;36.70;4.60;;;12.10;99.90;;;;;;5055020;28;20040;-67
2022/10/06 02:04:56;;;;;;;50.65;5.03;;;12.10;99.90;;;;;;5054511;28;20033;-67
2022/10/06 02:07:22;;;;;;;33.80;5.95;;;12.10;99.90;;;;;;5053943;28;20021;-67
2022/10/06 02:09:47;;;;;;;45.30;6.38;;;12.20;99.90;;;;;;5053339;28;20522;-67
2022/10/06 02:12:13;;;;;;;41.67;5.22;;;12.30;99.90;;;;;;5053800;28;20120;-67
2022/10/06 02:14:39;;;;;;;48.60;6.47;;;12.40;99.90;;;;;;5053813;28;20067;-66
2022/10/06 02:17:05;;;;;;;44.05;5.22;;;12.40;99.90;;;;;;5053751;28;20036;-67
2022/10/06 02:19:31;;;;;;;49.33;5.45;;;12.30;99.90;;;;;;5053772;28;20499;-67
2022/10/06 02:21:57;;;;;;;32.45;4.82;;;12.30;99.90;;;;;;5053295;28;20033;-67
2022/10/06 02:24:22;;;;;;;37.00;6.05;;;12.30;99.90;;;;;;5053886;28;20029;-67
2022/10/06 02:26:48;;;;;;;43.33;6.22;;;12.30;99.90;;;;;;5053853;28;20027;-67
2022/10/06 02:29:14;;;;;;;52.58;6.43;;;12.20;99.90;;;;;;5053491;28;20376;-67
2022/10/06 02:31:39;;;;;;;41.10;5.28;;;12.20;99.90;;;;;;5053302;28;20029;-67
2022/10/06 02:34:05;;;;;;;48.15;5.25;;;12.20;99.90;;;;;;5053615;28;20037;-67
2022/10/06 02:36:30;;;;;;;45.03;6.70;;;12.20;99.90;;;;;;5053454;28;20029;-67
2022/10/06 02:38:56;;;;;;;37.92;3.78;;;12.20;99.90;;;;;;5053945;28;20037;-67
2022/10/06 02:41:22;;;;;;;29.88;4.65;;;12.20;99.90;;;;;;5035448;28;20020;-67
2022/10/06 02:43:47;;;;;;;43.10;6.55;;;12.30;99.90;;;;;;5053055;28;20025;-67
2022/10/06 02:46:13;;;;;;;39.20;4.55;;;12.20;99.90;;;;;;5053333;28;20029;-67
2022/10/06 02:48:39;;;;;;;35.50;6.18;;;12.20;99.90;;;;;;5053650;28;20083;-67
2022/10/06 02:51:16;;;;;;;48.75;7.20;;;12.30;99.90;;;;;;5053545;28;20450;-67
2022/10/06 02:53:44;;;;;;;50.90;5.50;;;12.40;99.90;;;;;;5053615;28;20045;-68
2022/10/06 02:56:18;;;;;;;41.15;5.38;;;12.40;99.90;;;;;;5053090;28;20033;-68
2022/10/06 02:58:46;;;;;;;33.38;5.45;;;12.40;99.90;;;;;;5053798;28;20032;-68
2022/10/06 03:01:17;;;;;;;35.38;4.68;;;12.50;99.90;;;;;;5053380;28;20057;-68
2022/10/06 03:03:45;;;;;;;34.50;4.80;;;12.50;99.90;;;;;;5053324;28;20048;-68
2022/10/06 03:06:21;;;;;;;38.25;5.97;;;12.50;99.90;;;;;;5053155;28;20013;-68
2022/10/06 03:08:51;;;;;;;42.15;4.88;;;12.40;99.90;;;;;;5052711;28;20020;-68
2022/10/06 03:11:21;;;;;;;34.97;4.60;;;12.30;99.90;;;;;;5090187;23;20024;-68
2022/10/06 03:13:48;;;;;;;38.63;6.68;;;12.30;99.90;;;;;;5053193;28;20078;-68
2022/10/06 03:16:25;;;;;;;41.63;6.35;;;12.30;99.90;;;;;;5053367;28;20052;-68
2022/10/06 03:18:52;;;;;;;46.90;6.57;;;12.40;99.90;;;;;;5053692;28;20103;-68
2022/10/06 03:21:23;;;;;;;40.80;5.25;;;12.30;99.90;;;;;;5052568;28;20109;-68
2022/10/06 03:23:52;;;;;;;31.90;4.82;;;12.30;99.90;;;;;;5056688;28;20033;-68
2022/10/06 03:26:20;;;;;;;40.97;5.82;;;12.30;99.90;;;;;;5057042;28;20021;-68
2022/10/06 03:28:46;;;;;;;36.60;5.88;;;12.40;99.90;;;;;;5057001;28;20029;-68
2022/10/06 03:31:12;;;;;;;34.47;6.53;;;12.40;99.90;;;;;;5056462;28;20029;-68
2022/10/06 03:33:38;;;;;;;28.05;4.78;;;12.30;99.90;;;;;;5057174;28;20029;-68
2022/10/06 03:36:07;;;;;;;35.53;4.38;;;12.40;99.90;;;;;;5057099;28;20496;-68
2022/10/06 03:38:33;;;;;;;31.25;4.85;;;12.50;99.90;;;;;;5057045;28;20107;-68
2022/10/06 03:41:11;;;;;;;39.55;5.95;;;12.40;99.90;;;;;;5057073;28;20044;-69
2022/10/06 03:43:37;;;;;;;50.28;5.97;;;12.40;99.90;;;;;;5056524;28;20118;-69
2022/10/06 03:46:04;;;;;;;41.50;5.70;;;12.30;99.90;;;;;;5054397;28;20437;-69
2022/10/06 03:48:34;;;;;;;44.85;5.28;;;12.30;99.90;;;;;;5039104;28;20022;-68
2022/10/06 03:51:03;;;;;;;43.67;5.03;;;12.40;99.90;;;;;;5050608;28;20013;-68
2022/10/06 03:53:29;;;;;;;33.33;5.65;;;12.50;99.90;;;;;;5054001;28;20362;-68
2022/10/06 03:55:59;;;;;;;32.78;5.38;;;12.60;99.90;;;;;;5042507;28;20374;-68
2022/10/06 03:58:26;;;;;;;32.28;5.13;;;12.50;99.90;;;;;;5056056;28;20032;-68
2022/10/06 04:01:23;;;;;;;23.05;3.45;;;12.30;99.90;;;;;;5056415;28;20117;-68
2022/10/06 04:03:48;;;;;;;31.33;3.88;;;12.10;99.90;;;;;;5048087;28;20148;-68
2022/10/06 04:06:17;;;;;;;37.72;5.13;;;12.00;99.90;;;;;;5056335;28;20480;-68
2022/10/06 04:08:45;;;;;;;31.17;4.95;;;11.90;99.90;;;;;;5056084;28;20036;-68
2022/10/06 04:11:17;;;;;;;39.20;4.65;;;11.90;99.90;;;;;;5056186;28;20460;-68
2022/10/06 04:13:44;;;;;;;40.45;5.28;;;12.00;99.90;;;;;;5056406;28;20030;-68
2022/10/06 04:16:19;;;;;;;32.55;4.95;;;12.10;99.90;;;;;;5056385;28;20104;-68
2022/10/06 04:18:47;;;;;;;28.00;4.60;;;12.10;99.90;;;;;;5055925;28;20499;-68
2022/10/06 04:21:14;;;;;;;25.13;4.22;;;12.20;99.90;;;;;;5055417;28;20037;-68
2022/10/06 04:23:39;;;;;;;27.73;4.45;;;12.20;99.90;;;;;;5056178;28;20381;-68
2022/10/06 04:26:09;;;;;;;29.73;4.95;;;12.00;99.90;;;;;;5055920;28;20021;-68
2022/10/06 04:28:36;;;;;;;36.58;4.97;;;11.90;99.90;;;;;;5056285;28;20120;-68
2022/10/06 04:31:04;;;;;;;35.13;5.50;;;11.70;99.90;;;;;;5055747;28;20021;-68
2022/10/06 04:33:33;;;;;;;32.78;5.80;;;11.70;99.90;;;;;;5054494;28;20112;-68
2022/10/06 04:36:01;;;;;;;28.60;5.20;;;11.70;99.90;;;;;;5055256;28;20036;-68
2022/10/06 04:38:28;;;;;;;38.72;4.93;;;11.80;99.90;;;;;;5055603;28;20032;-68
2022/10/06 04:40:54;;;;;;;38.05;5.55;;;11.80;99.90;;;;;;5055592;28;20052;-68
2022/10/06 04:43:20;;;;;;;28.17;4.82;;;11.90;99.90;;;;;;5053490;28;20500;-68
2022/10/06 04:45:45;;;;;;;29.80;4.75;;;11.90;99.90;;;;;;5056100;28;20056;-68
2022/10/06 04:48:12;;;;;;;29.08;5.70;;;12.00;99.90;;;;;;5055499;28;20033;-68
2022/10/06 04:50:38;;;;;;;35.47;5.38;;;12.00;99.90;;;;;;5055748;28;20454;-68
2022/10/06 04:53:03;;;;;;;41.58;5.22;;;11.90;99.90;;;;;;5056565;28;20057;-68
2022/10/06 04:55:29;;;;;;;37.45;5.95;;;11.80;99.90;;;;;;5056225;28;20028;-68
2022/10/06 04:57:54;;;;;;;53.03;6.97;;;11.90;99.90;;;;;;5055547;28;20523;-68
2022/10/06 05:00:24;;;;;;;43.28;5.15;;;11.80;99.90;;;;;;5055786;28;20043;-68
2022/10/06 05:02:54;;;;;;;38.92;5.80;;;11.80;99.90;;;;;;5054905;28;20021;-68
2022/10/06 05:05:20;;;;;;;42.38;5.93;;;11.90;99.90;;;;;;5055528;28;20482;-68
2022/10/06 05:07:46;;;;;;;37.80;5.47;;;11.90;99.90;;;;;;5053377;28;20017;-68
2022/10/06 05:10:11;;;;;;;54.70;5.88;;;11.90;99.90;;;;;;5055139;28;20461;-68
2022/10/06 05:12:37;;;;;;;54.58;6.43;;;11.90;99.90;;;;;;5055055;28;20118;-68
2022/10/06 05:15:02;;;;;;;34.80;5.13;;;12.00;99.90;;;;;;5055068;28;20082;-68
2022/10/06 05:17:28;;;;;;;47.47;6.10;;;12.00;99.90;;;;;;5054255;28;20025;-68
2022/10/06 05:19:53;;;;;;;31.25;3.90;;;12.00;99.90;;;;;;5054882;28;20029;-68
2022/10/06 05:22:19;;;;;;;26.05;4.25;;;12.00;99.90;;;;;;5054732;28;20033;-69
2022/10/06 05:24:45;;;;;;;35.05;5.07;;;12.00;99.90;;;;;;5054368;28;20021;-69
2022/10/06 05:27:10;;;;;;;23.30;4.53;;;12.00;99.90;;;;;;5054739;28;20051;-69
2022/10/06 05:29:36;;;;;;;31.45;5.20;;;12.00;99.90;;;;;;5054980;28;20063;-69
2022/10/06 05:32:01;;;;;;;33.25;5.60;;;12.00;99.90;;;;;;5054712;28;20037;-68
2022/10/06 05:34:27;;;;;;;32.55;6.28;;;11.90;99.90;;;;;;5054087;28;20370;-68
2022/10/06 05:36:52;;;;;;;36.75;4.70;;;12.00;99.90;;;;;;5054587;28;20039;-68
2022/10/06 05:39:18;;;;;;;39.83;4.40;;;12.10;99.90;;;;;;5054507;28;20032;-68
2022/10/06 05:41:43;;;;;;;42.13;4.80;;;12.10;99.90;;;;;;5052582;28;20265;-68
2022/10/06 05:44:09;;;;;;;26.45;4.55;;;12.10;99.90;;;;;;5054692;28;20018;-68
2022/10/06 05:46:35;;;;;;;34.63;3.78;;;12.20;99.90;;;;;;5053963;28;20047;-68
2022/10/06 05:49:03;;;;;;;39.88;5.20;;;12.20;99.90;;;;;;5054851;28;20022;-68
2022/10/06 05:51:31;;;;;;;69.88;6.88;;;12.40;99.90;;;;;;5054410;28;20025;-68
2022/10/06 05:53:57;;;;;;;22.40;5.35;;;12.40;99.90;;;;;;5053798;28;20469;-68
2022/10/06 05:56:31;;;;;;;39.28;5.20;;;12.20;99.90;;;;;;5054156;28;20395;-68
2022/10/06 05:58:58;;;;;;;29.67;4.65;;;12.00;99.90;;;;;;5053162;28;20423;-68
2022/10/06 06:01:27;;;;;;;36.35;5.72;;;12.00;99.90;;;;;;5053652;28;20468;-69
2022/10/06 06:03:55;;;;;;;38.55;5.80;;;11.90;99.90;;;;;;5054056;28;20104;-68
2022/10/06 06:06:26;;;;;;;24.83;4.43;;;11.70;99.90;;;;;;5054335;28;20516;-68
2022/10/06 06:08:55;;;;;;;27.77;4.00;;;11.70;99.90;;;;;;5053998;28;20127;-68
2022/10/06 06:11:24;;;;;;;28.75;3.75;;;11.70;99.90;;;;;;5053574;28;20389;-68
2022/10/06 06:13:57;;;;;;;44.47;5.43;;;11.80;99.90;;;;;;5054177;28;20031;-68
2022/10/06 06:16:23;;;;;;;38.80;4.25;;;11.70;99.90;;;;;;5052130;28;20039;-68
2022/10/06 06:18:49;;;;;;;35.72;6.55;;;11.80;99.90;;;;;;5053838;28;20484;-68
2022/10/06 06:21:15;;;;;;;31.52;4.45;;;11.90;99.90;;;;;;5053993;28;20033;-68
2022/10/06 06:23:44;;;;;;;31.73;4.03;;;12.00;99.90;;;;;;5053910;28;20381;-68
2022/10/06 06:26:14;;;;;;;34.78;5.82;;;12.30;99.90;;;;;;5053938;28;20067;-68
2022/10/06 06:28:40;;;;;;;23.73;4.70;;;12.20;99.90;;;;;;5053634;28;20017;-68
2022/10/06 06:31:29;;;;;;;36.22;5.60;;;12.30;99.90;;;;;;5053377;28;20412;-68
2022/10/06 06:33:57;;;;;;;30.40;5.47;;;12.40;99.90;;;;;;5053850;28;20465;-68
2022/10/06 06:36:34;;;;;;;48.90;8.05;;;12.60;99.90;;;;;;5054056;28;20028;-69
2022/10/06 06:39:01;;;;;;;38.38;5.18;;;12.60;99.90;;;;;;5051734;28;20078;-68
2022/10/06 06:41:36;;;;;;;42.50;8.93;;;12.60;99.90;;;;;;5053531;28;20025;-68
2022/10/06 06:44:02;;;;;;;35.42;5.53;;;12.60;99.90;;;;;;5053392;28;20116;-68
2022/10/06 06:46:32;;;;;;;37.58;7.30;;;12.60;99.90;;;;;;5053647;28;20477;-68
2022/10/06 06:49:03;;;;;;;28.25;6.28;;;12.60;99.90;;;;;;5053179;28;20068;-69
2022/10/06 06:51:29;;;;;;;38.95;5.55;;;12.70;99.90;;;;;;5053237;28;20029;-69
2022/10/06 06:53:58;;;;;;;39.40;6.63;;;12.80;99.90;;;;;;5053283;28;20025;-69
2022/10/06 06:56:23;;;;;;;31.42;6.70;;;12.80;99.90;;;;;;5052753;28;20021;-69
2022/10/06 06:58:50;;;;;;;38.28;6.78;;;12.90;99.90;;;;;;5053369;28;20075;-69
2022/10/06 07:01:18;;;;;;;29.17;5.07;;;13.00;99.90;;;;;;5052983;28;20100;-70
2022/10/06 07:03:46;;;;;;;24.95;5.35;;;13.20;99.90;;;;;;5053690;28;20029;-69
2022/10/06 07:06:15;;;;;;;37.90;6.93;;;13.30;99.90;;;;;;5053477;28;20448;-69
2022/10/06 07:08:42;;;;;;;26.20;6.18;;;13.30;99.90;;;;;;5053521;28;20423;-69
2022/10/06 07:11:24;;;;;;;29.83;6.10;;;13.30;99.90;;;;;;5053058;28;20033;-69
2022/10/06 07:13:52;;;;;;;30.35;4.82;;;13.30;99.90;;;;;;5053471;28;20086;-69
2022/10/06 07:25:06;;;;;;;27.17;3.95;;;13.50;99.90;;;;;;5053448;28;20040;-70
2022/10/06 07:27:52;;;;;;;37.20;4.78;;;13.60;99.90;;;;;;5052878;28;20055;-69
2022/10/06 07:30:25;;;;;;;29.08;5.82;;;13.80;99.90;;;;;;5053247;28;20396;-70
2022/10/06 07:32:51;;;;;;;24.77;3.85;;;13.80;99.90;;;;;;5052948;28;20025;-70
2022/10/06 07:35:19;;;;;;;23.02;4.47;;;13.80;99.90;;;;;;5053243;28;20051;-69
2022/10/06 07:37:45;;;;;;;26.90;5.20;;;13.90;99.90;;;;;;5053115;28;20029;-69
2022/10/06 07:40:11;;;;;;;27.35;3.78;;;13.90;99.90;;;;;;5052878;28;20055;-69
2022/10/06 07:42:48;;;;;;;29.98;3.88;;;14.00;99.90;;;;;;5052432;28;20021;-69
2022/10/06 07:48:07;;;;;;;23.83;3.58;;;14.10;99.90;;;;;;5053258;28;20087;-69
2022/10/06 07:50:33;;;;;;;32.05;4.85;;;14.10;99.90;;;;;;5053164;28;20124;-69
2022/10/06 07:53:07;;;;;;;31.17;4.25;;;14.20;99.90;;;;;;5052794;28;20119;-69
2022/10/06 07:55:34;;;;;;;26.73;2.95;;;14.20;99.90;;;;;;5052697;28;20021;-69
2022/10/06 07:57:59;;;;;;;23.33;3.42;;;14.30;99.90;;;;;;5052794;28;20396;-69
2022/10/06 08:00:25;;;;;;;20.38;3.63;;;14.40;99.90;;;;;;5053068;28;20021;-69
2022/10/06 08:02:53;;;;;;;26.63;4.68;;;14.50;99.90;;;;;;5051424;28;20025;-69
2022/10/06 08:05:18;;;;;;;19.88;3.63;;;14.60;99.90;;;;;;5052749;28;20013;-69
2022/10/06 08:07:44;;;;;;;20.30;3.58;;;14.60;99.90;;;;;;5053003;28;20029;-69
2022/10/06 08:10:09;;;;;;;29.83;4.63;;;14.70;99.90;;;;;;5056532;28;20028;-69
2022/10/06 08:12:39;;;;;;;28.75;4.65;;;14.80;99.90;;;;;;5054776;28;20106;-68
2022/10/06 08:15:07;;;;;;;19.98;3.88;;;14.80;99.90;;;;;;5056428;28;20017;-69
2022/10/06 08:17:34;;;;;;;18.80;3.78;;;14.80;99.90;;;;;;5044557;28;20108;-69
2022/10/06 08:20:00;;;;;;;21.13;3.58;;;14.90;99.90;;;;;;5045056;28;20024;-69
2022/10/06 08:22:29;;;;;;;42.20;4.63;;;14.90;99.90;;;;;;5056010;28;20082;-69
2022/10/06 08:24:56;;;;;;;26.85;4.38;;;15.10;99.90;;;;;;5054399;28;20013;-69
2022/10/06 08:27:23;;;;;;;22.85;3.55;;;15.00;99.90;;;;;;5056215;28;20458;-69
2022/10/06 08:29:49;;;;;;;32.03;4.70;;;15.00;99.90;;;;;;5055878;28;20018;-69
2022/10/06 08:32:14;;;;;;;28.92;4.05;;;15.00;99.90;;;;;;5055871;28;20040;-69
2022/10/06 08:34:40;;;;;;;21.70;3.65;;;15.10;99.90;;;;;;5055261;28;20036;-69
2022/10/06 08:37:06;;;;;;;36.80;3.95;;;15.20;99.90;;;;;;5056006;28;20475;-69
2022/10/06 08:39:31;;;;;;;30.70;4.68;;;15.20;99.90;;;;;;5055668;28;20496;-68
2022/10/06 08:41:57;;;;;;;31.25;6.07;;;14.90;99.90;;;;;;5055570;28;20036;-68
2022/10/06 08:44:31;;;;;;;26.05;3.97;;;14.70;99.90;;;;;;5055232;28;20091;-68
2022/10/06 08:47:02;;;;;;;29.42;4.78;;;14.60;99.90;;;;;;5055881;28;20027;-69
2022/10/06 08:49:37;;;;;;;38.50;4.30;;;14.70;99.90;;;;;;5055819;28;20017;-69
2022/10/06 08:52:09;;;;;;;33.38;6.32;;;14.70;99.90;;;;;;5055370;28;20473;-69
2022/10/06 08:54:44;;;;;;;28.08;4.43;;;14.70;99.90;;;;;;5056236;28;20372;-69
2022/10/06 08:57:20;;;;;;;16.02;4.80;;;14.60;99.90;;;;;;5055000;28;20039;-68
2022/10/06 08:59:48;;;;;;;37.20;4.38;;;14.70;99.90;;;;;;5055616;28;20049;-68
2022/10/06 09:02:40;;;;;;;25.80;4.93;;;14.80;99.90;;;;;;5055114;28;20112;-69
2022/10/06 09:05:07;;;;;;;21.98;4.55;;;15.20;99.90;;;;;;5055562;28;20047;-69
2022/10/06 09:07:52;;;;;;;26.70;4.97;;;15.30;99.90;;;;;;5054697;28;20021;-68
2022/10/06 09:10:37;;;;;;;31.15;3.88;;;15.60;99.90;;;;;;5055152;28;20075;-68
2022/10/06 09:13:11;;;;;;;25.77;4.43;;;15.70;99.90;;;;;;5065570;22;20140;-69
2022/10/06 09:15:52;;;;;;;29.38;4.43;;;15.80;99.90;;;;;;5035197;28;20108;-69
2022/10/06 09:18:30;;;;;;;36.78;4.95;;;15.80;99.90;;;;;;5035262;28;20026;-69
2022/10/06 09:21:02;;;;;;;22.92;3.20;;;15.80;99.90;;;;;;5034564;28;20064;-69
2022/10/06 09:23:46;;;;;;;28.95;4.55;;;15.90;99.90;;;;;;5034541;28;20029;-69
2022/10/06 09:26:13;;;;;;;;;;;15.80;99.90;;;;;;5035711;28;20104;-69
2022/10/06 09:28:38;;;;;;;35.10;6.68;;;15.80;99.90;;;;;;5034930;28;20288;-69
2022/10/06 09:31:22;;;;;;;26.73;3.97;;;15.80;99.90;;;;;;5035084;28;20025;-69
2022/10/06 09:33:50;;;;;;;33.70;4.80;;;15.80;99.90;;;;;;5034723;28;20436;-69
2022/10/06 09:36:16;;;;;;;20.25;3.83;;;15.90;99.90;;;;;;5034230;28;20418;-69
2022/10/06 09:38:54;;;;;;;29.33;4.47;;;15.90;99.90;;;;;;5034888;28;20063;-69
2022/10/06 09:41:36;;;;;;;32.63;5.30;;;15.90;99.90;;;;;;5034740;28;20025;-69
2022/10/06 09:44:19;;;;;;;38.60;5.07;;;15.90;99.90;;;;;;5034874;28;20025;-69
2022/10/06 09:46:45;;;;;;;42.33;5.07;;;15.90;99.90;;;;;;5034756;28;20103;-69
2022/10/06 09:49:16;;;;;;;31.88;5.97;;;16.10;99.90;;;;;;5033979;28;20057;-69
2022/10/06 09:51:57;;;;;;;34.30;5.55;;;16.10;99.90;;;;;;5034212;28;20018;-69
2022/10/06 09:54:23;;;;;;;35.35;5.60;;;16.00;99.90;;;;;;5034666;28;20025;-69
2022/10/06 09:56:49;;;;;;;39.13;6.38;;;15.90;99.90;;;;;;5034342;28;20036;-69
2022/10/06 09:59:20;;;;;;;33.92;4.78;;;15.70;99.90;;;;;;5033815;28;20025;-69
2022/10/06 10:01:54;;;;;;;30.90;4.82;;;15.70;99.90;;;;;;5034271;28;20064;-69
2022/10/06 10:04:26;;;;;;;44.95;7.05;;;15.80;99.90;;;;;;5034118;28;20504;-70
2022/10/06 10:06:52;;;;;;;38.92;5.63;;;15.90;99.90;;;;;;5034097;28;20441;-70
2022/10/06 10:09:27;;;;;;;33.00;5.38;;;15.90;99.90;;;;;;5034226;28;20052;-69
2022/10/06 10:12:28;;;;;;;38.22;5.95;;;16.10;99.90;;;;;;5033761;28;20430;-70
2022/10/06 10:15:03;;;;;;;38.58;6.55;;;16.10;99.90;;;;;;5033984;28;20101;-69
2022/10/06 10:17:31;;;;;;;43.90;6.13;;;16.20;99.90;;;;;;5024955;28;20021;-68
2022/10/06 10:19:57;;;;;;;37.15;6.03;;;16.30;99.90;;;;;;5027659;28;20020;-69
2022/10/06 10:22:38;;;;;;;32.70;5.20;;;16.50;99.90;;;;;;5022628;28;20424;-68
2022/10/06 10:25:18;;;;;;;33.35;5.10;;;16.40;99.90;;;;;;5028888;28;20037;-69
2022/10/06 10:27:51;;;;;;;49.15;6.35;;;16.30;99.90;;;;;;5023186;28;20086;-68
2022/10/06 10:30:17;;;;;;;38.30;6.22;;;16.30;99.90;;;;;;5022188;28;20033;-68
2022/10/06 10:33:14;;;;;;;33.13;5.78;;;16.30;99.90;;;;;;5023115;28;20111;-69
2022/10/06 10:35:44;;;;;;;37.00;5.50;;;16.40;99.90;;;;;;5024430;28;20432;-68
2022/10/06 10:38:18;;;;;;;47.53;6.20;;;16.50;99.90;;;;;;5024672;28;20036;-68
2022/10/06 10:40:47;;;;;;;;;;;16.60;99.90;;;;;;5028826;28;20079;-69
2022/10/06 10:43:38;;;;;;;35.05;5.70;;;16.60;99.90;;;;;;5022051;28;19917;-68
2022/10/06 10:46:16;;;;;;;33.58;5.65;;;16.60;99.90;;;;;;5027263;28;20052;-68
2022/10/06 10:49:05;;;;;;;31.17;5.30;;;16.80;99.90;;;;;;5028018;28;20029;-67
2022/10/06 10:51:36;;;;;;;42.40;5.65;;;16.70;99.90;;;;;;5022394;28;20031;-68
2022/10/06 10:54:24;;;;;;;27.55;5.57;;;16.70;99.90;;;;;;5029557;28;20873;-69
2022/10/06 10:56:51;;;;;;;37.70;5.40;;;16.70;99.90;;;;;;5024404;28;20409;-68
2022/10/06 10:59:21;;;;;;;45.70;5.18;;;16.90;99.90;;;;;;5028433;28;20487;-69
2022/10/06 11:02:03;;;;;;;48.22;5.68;;;16.90;99.90;;;;;;5020283;28;20049;-68
2022/10/06 11:04:29;;;;;;;48.38;6.88;;;17.00;99.90;;;;;;5019632;28;20025;-68
2022/10/06 11:07:07;;;;;;;28.00;4.90;;;16.80;99.90;;;;;;5025503;28;20017;-69
2022/10/06 11:09:59;;;;;;;26.98;5.35;;;16.80;99.90;;;;;;5033340;28;20048;-68
2022/10/06 11:12:25;;;;;;;39.45;6.03;;;16.80;99.90;;;;;;5032512;28;20124;-69
2022/10/06 11:15:12;;;;;;;31.50;5.70;;;16.90;99.90;;;;;;5033597;28;20100;-69
2022/10/06 11:17:43;;;;;;;31.55;5.20;;;16.90;99.90;;;;;;5033307;28;20026;-69
2022/10/06 11:20:33;;;;;;;40.53;4.57;;;17.10;99.90;;;;;;5033476;28;20029;-70
2022/10/06 11:23:16;;;;;;;35.22;4.40;;;17.10;99.90;;;;;;5033210;28;20113;-69
2022/10/06 11:26:15;;;;;;;32.00;5.05;;;17.00;99.90;;;;;;5033427;28;20040;-69
2022/10/06 11:28:49;;;;;;;34.88;5.95;;;16.90;99.90;;;;;;5028172;28;20041;-69
2022/10/06 11:31:20;;;;;;;43.13;5.65;;;17.10;99.90;;;;;;5033400;28;20030;-69
2022/10/06 11:33:52;;;;;;;30.80;5.03;;;17.40;99.90;;;;;;5033058;28;20104;-69
2022/10/06 11:36:36;;;;;;;42.90;6.80;;;17.40;99.90;;;;;;5033351;28;20053;-69
2022/10/06 11:39:17;;;;;;;39.42;6.40;;;17.30;99.90;;;;;;5031273;28;20032;-69
2022/10/06 11:41:55;;;;;;;27.27;4.40;;;17.30;99.90;;;;;;5033759;28;20077;-69
2022/10/06 11:44:41;;;;;;;33.08;4.88;;;17.30;99.90;;;;;;5035686;28;20531;-69
2022/10/06 11:47:18;;;;;;;36.47;5.55;;;17.20;99.90;;;;;;5036944;28;20028;-69
2022/10/06 11:49:51;;;;;;;25.98;4.15;;;17.10;99.90;;;;;;5036832;28;20025;-69
2022/10/06 11:52:17;;;;;;;26.10;5.03;;;17.00;99.90;;;;;;5036553;28;20040;-69
2022/10/06 11:54:46;;;;;;;25.92;4.35;;;17.10;99.90;;;;;;5036897;28;20029;-69
2022/10/06 11:57:26;;;;;;;30.67;4.57;;;16.90;99.90;;;;;;5036489;28;20061;-69
2022/10/06 12:00:13;;;;;;;37.47;4.88;;;17.10;99.90;;;;;;5036504;28;20048;-69
2022/10/06 12:02:41;;;;;;;34.65;6.35;;;17.50;99.90;;;;;;5031892;28;20512;-69
2022/10/06 12:05:13;;;;;;;26.75;3.33;;;17.80;99.90;;;;;;5036643;28;20040;-69
2022/10/06 12:07:53;;;;;;;20.95;3.80;;;17.70;99.90;;;;;;5036318;28;20100;-69
2022/10/06 12:10:28;;;;;;;29.13;5.28;;;17.70;99.90;;;;;;5036332;28;20053;-69
2022/10/06 12:13:12;;;;;;;35.97;6.65;;;17.90;99.90;;;;;;5035683;28;20446;-68
2022/10/06 12:15:55;;;;;;;28.92;5.85;;;17.50;99.90;;;;;;5036522;28;20026;-68
2022/10/06 12:18:24;;;;;;;35.15;5.03;;;17.40;99.90;;;;;;5036455;28;20539;-69
2022/10/06 12:20:56;;;;;;;35.25;5.60;;;17.80;99.90;;;;;;5036115;28;20053;-69
2022/10/06 12:23:40;;;;;;;46.17;6.43;;;18.20;99.90;;;;;;5035453;28;20026;-68
2022/10/06 12:26:30;;;;;;;32.92;5.10;;;18.20;99.90;;;;;;5036305;28;20028;-68
2022/10/06 12:29:17;;;;;;;32.15;4.93;;;18.10;99.90;;;;;;5035964;28;20533;-68
2022/10/06 12:32:13;;;;;;;21.98;4.03;;;18.20;99.90;;;;;;5035894;28;20481;-68
2022/10/06 12:34:38;;;;;;;34.58;6.22;;;18.50;99.90;;;;;;5026577;28;20156;-68
2022/10/06 12:37:32;;;;;;;31.80;5.15;;;18.80;99.90;;;;;;5035856;28;20049;-69
2022/10/06 12:40:36;;;;;;;31.77;5.27;;;19.00;99.90;;;;;;5035819;28;20021;-69
2022/10/06 12:43:16;;;;;;;45.33;8.60;;;18.80;99.90;;;;;;5035650;28;20017;-69
2022/10/06 12:46:14;;;;;;;36.03;5.45;;;18.70;99.90;;;;;;5036198;28;20083;-69
2022/10/06 12:48:57;;;;;;;40.47;7.10;;;18.80;99.90;;;;;;5020195;28;20038;-68
2022/10/06 12:51:50;;;;;;;33.40;5.33;;;18.70;99.90;;;;;;5031261;28;20385;-68
2022/10/06 12:54:21;;;;;;;30.75;6.57;;;18.60;99.90;;;;;;5021269;28;20037;-68
2022/10/06 12:56:57;;;;;;;26.00;4.75;;;18.10;99.90;;;;;;5035007;28;20017;-68
2022/10/06 12:59:28;;;;;;;33.63;5.00;;;17.90;99.90;;;;;;5035734;28;20064;-69
2022/10/06 13:02:06;;;;;;;32.05;5.03;;;18.30;99.90;;;;;;5035239;28;20072;-69
2022/10/06 13:04:41;;;;;;;40.33;6.15;;;18.40;99.90;;;;;;5035364;28;20022;-69
2022/10/06 13:07:13;;;;;;;34.20;5.05;;;18.10;99.90;;;;;;5035471;28;20018;-68
2022/10/06 13:09:38;;;;;;;41.08;6.20;;;18.30;99.90;;;;;;5035550;28;20075;-67